createdAt,value
2023-02-05T00:00:22.282Z,0
2023-02-05T00:01:22.276Z,0
2023-02-05T00:02:23.822Z,0
2023-02-05T00:03:24.316Z,0
2023-02-05T00:04:24.542Z,0
2023-02-05T00:05:24.804Z,0
2023-02-05T00:06:24.452Z,0
2023-02-05T00:07:25.653Z,0
2023-02-05T00:08:25.856Z,0
2023-02-05T00:09:26.340Z,0
2023-02-05T00:10:26.269Z,0
2023-02-05T00:11:27.692Z,0
2023-02-05T00:12:27.702Z,0
2023-02-05T00:13:28.193Z,0
2023-02-05T00:14:28.698Z,0
2023-02-05T00:15:28.333Z,0
2023-02-05T00:16:29.620Z,0
2023-02-05T00:17:30.290Z,0
2023-02-05T00:18:31.505Z,0
2023-02-05T00:19:31.140Z,0
2023-02-05T00:20:32.360Z,0
2023-02-05T00:21:32.097Z,0
2023-02-05T00:22:33.015Z,0
2023-02-05T00:23:33.960Z,0
2023-02-05T00:24:34.898Z,0
2023-02-05T00:25:35.148Z,0
2023-02-05T00:26:35.545Z,0
2023-02-05T00:27:35.809Z,0
2023-02-05T00:28:35.999Z,0
2023-02-05T00:29:36.479Z,0
2023-02-05T00:30:36.917Z,0
2023-02-05T00:31:37.716Z,0
2023-02-05T00:32:36.696Z,0
2023-02-05T00:33:37.625Z,0
2023-02-05T00:34:37.975Z,0
2023-02-05T00:35:39.573Z,0
2023-02-05T00:36:40.076Z,0
2023-02-05T00:37:39.986Z,0
2023-02-05T00:38:40.501Z,0
2023-02-05T00:39:40.122Z,0
2023-02-05T00:40:41.317Z,0
2023-02-05T00:41:42.778Z,0
2023-02-05T00:42:43.087Z,0
2023-02-05T00:43:42.979Z,0
2023-02-05T00:44:44.181Z,0
2023-02-05T00:45:46.446Z,0
2023-02-05T00:46:45.470Z,0
2023-02-05T00:47:45.495Z,0
2023-02-05T00:48:46.712Z,0
2023-02-05T00:49:46.915Z,0
2023-02-05T00:50:46.854Z,0
2023-02-05T00:51:47.085Z,0
2023-02-05T00:52:48.091Z,0
2023-02-05T00:53:49.646Z,0
2023-02-05T00:54:49.579Z,0
2023-02-05T00:55:50.235Z,0
2023-02-05T00:56:50.916Z,0
2023-02-05T00:57:51.152Z,0
2023-02-05T00:58:51.345Z,0
2023-02-05T00:59:50.962Z,0
2023-02-05T01:00:51.890Z,0
2023-02-05T01:01:52.700Z,0
2023-02-05T01:02:52.862Z,0
2023-02-05T01:03:53.501Z,0
2023-02-05T01:04:54.450Z,0
2023-02-05T01:05:54.664Z,0
2023-02-05T01:06:55.899Z,0
2023-02-05T01:07:55.819Z,0
2023-02-05T01:08:57.042Z,0
2023-02-05T01:09:57.529Z,0
2023-02-05T01:10:57.170Z,0
2023-02-05T01:11:58.596Z,0
2023-02-05T01:12:58.843Z,0
2023-02-05T01:13:59.367Z,0
2023-02-05T01:14:59.332Z,0
2023-02-05T01:15:59.919Z,0
2023-02-05T01:17:00.833Z,0
2023-02-05T01:18:02.024Z,0
2023-02-05T01:19:02.927Z,0
2023-02-05T01:20:03.136Z,0
2023-02-05T01:21:03.332Z,0
2023-02-05T01:22:04.340Z,0
2023-02-05T01:23:04.541Z,0
2023-02-05T01:24:05.023Z,0
2023-02-05T01:25:05.012Z,0
2023-02-05T01:26:05.964Z,0
2023-02-05T01:27:06.223Z,0
2023-02-05T01:28:07.737Z,0
2023-02-05T01:29:07.682Z,0
2023-02-05T01:30:08.924Z,0
2023-02-05T01:31:09.296Z,0
2023-02-05T01:32:10.212Z,0
2023-02-05T01:33:10.413Z,0
2023-02-05T01:34:10.053Z,0
2023-02-05T01:35:11.003Z,0
2023-02-05T01:36:11.635Z,0
2023-02-05T01:37:12.837Z,0
2023-02-05T01:38:13.351Z,0
2023-02-05T01:39:13.258Z,0
2023-02-05T01:40:14.206Z,0
2023-02-05T01:41:14.755Z,0
2023-02-05T01:42:15.194Z,0
2023-02-05T01:43:15.209Z,0
2023-02-05T01:44:15.121Z,0
2023-02-05T01:45:15.480Z,0
2023-02-05T01:46:16.585Z,0
2023-02-05T01:47:16.522Z,0
2023-02-05T01:48:16.444Z,0
2023-02-05T01:49:17.636Z,0
2023-02-05T01:50:17.843Z,0
2023-02-05T01:51:17.774Z,0
2023-02-05T01:52:19.098Z,0
2023-02-05T01:53:19.297Z,0
2023-02-05T01:54:19.687Z,0
2023-02-05T01:55:20.599Z,0
2023-02-05T01:56:22.087Z,0
2023-02-05T01:57:22.642Z,0
2023-02-05T01:58:22.900Z,0
2023-02-05T01:59:25.886Z,0
2023-02-05T02:00:23.506Z,0
2023-02-05T02:01:24.585Z,0
2023-02-05T02:02:24.809Z,0
2023-02-05T02:03:25.034Z,0
2023-02-05T02:04:24.712Z,0
2023-02-05T02:05:25.650Z,0
2023-02-05T02:06:25.844Z,0
2023-02-05T02:07:25.993Z,0
2023-02-05T02:08:26.932Z,0
2023-02-05T02:09:27.863Z,0
2023-02-05T02:10:28.365Z,0
2023-02-05T02:11:28.304Z,0
2023-02-05T02:12:29.505Z,0
2023-02-05T02:13:29.462Z,0
2023-02-05T02:14:30.643Z,0
2023-02-05T02:15:30.582Z,0
2023-02-05T02:16:31.769Z,0
2023-02-05T02:17:31.692Z,0
2023-02-05T02:18:32.671Z,0
2023-02-05T02:19:33.587Z,0
2023-02-05T02:20:34.881Z,0
2023-02-05T02:21:35.235Z,0
2023-02-05T02:22:36.227Z,0
2023-02-05T02:23:37.438Z,0
2023-02-05T02:24:38.649Z,0
2023-02-05T02:25:39.344Z,0
2023-02-05T02:26:39.552Z,0
2023-02-05T02:27:40.519Z,0
2023-02-05T02:28:40.753Z,0
2023-02-05T02:29:40.363Z,0
2023-02-05T02:30:41.327Z,0
2023-02-05T02:31:41.897Z,0
2023-02-05T02:32:41.974Z,0
2023-02-05T02:33:41.886Z,0
2023-02-05T02:34:42.234Z,0
2023-02-05T02:35:44.157Z,0
2023-02-05T02:36:44.357Z,0
2023-02-05T02:37:44.730Z,0
2023-02-05T02:38:45.670Z,0
2023-02-05T02:39:46.581Z,0
2023-02-05T02:40:46.795Z,0
2023-02-05T02:41:46.709Z,0
2023-02-05T02:42:47.810Z,0
2023-02-05T02:43:47.765Z,0
2023-02-05T02:44:49.268Z,0
2023-02-05T02:45:50.203Z,0
2023-02-05T02:46:50.687Z,0
2023-02-05T02:47:51.189Z,0
2023-02-05T02:48:51.121Z,0
2023-02-05T02:49:51.758Z,0
2023-02-05T02:50:52.969Z,0
2023-02-05T02:51:53.466Z,0
2023-02-05T02:52:53.790Z,0
2023-02-05T02:53:55.119Z,0
2023-02-05T02:54:55.647Z,0
2023-02-05T02:55:55.589Z,0
2023-02-05T02:56:55.527Z,0
2023-02-05T02:57:57.090Z,0
2023-02-05T02:58:57.624Z,0
2023-02-05T02:59:57.834Z,0
2023-02-05T03:00:58.557Z,0
2023-02-05T03:02:05.254Z,0
2023-02-05T03:02:58.711Z,0
2023-02-05T03:04:00.197Z,0
2023-02-05T03:04:59.842Z,0
2023-02-05T03:06:01.644Z,0
2023-02-05T03:07:01.546Z,0
2023-02-05T03:08:03.044Z,0
2023-02-05T03:09:03.270Z,0
2023-02-05T03:10:04.194Z,0
2023-02-05T03:11:04.308Z,0
2023-02-05T03:12:05.279Z,0
2023-02-05T03:13:06.690Z,0
2023-02-05T03:14:06.798Z,0
2023-02-05T03:15:07.037Z,0
2023-02-05T03:16:07.116Z,0
2023-02-05T03:17:08.026Z,0
2023-02-05T03:18:09.518Z,0
2023-02-05T03:19:09.443Z,0
2023-02-05T03:20:09.788Z,0
2023-02-05T03:21:11.014Z,0
2023-02-05T03:22:11.222Z,0
2023-02-05T03:23:11.946Z,0
2023-02-05T03:24:11.886Z,0
2023-02-05T03:25:12.539Z,0
2023-02-05T03:26:12.890Z,0
2023-02-05T03:27:13.804Z,0
2023-02-05T03:28:14.698Z,0
2023-02-05T03:29:15.273Z,0
2023-02-05T03:30:14.886Z,0
2023-02-05T03:31:16.730Z,0
2023-02-05T03:32:16.505Z,0
2023-02-05T03:33:16.594Z,0
2023-02-05T03:34:17.818Z,0
2023-02-05T03:35:18.027Z,0
2023-02-05T03:36:17.638Z,0
2023-02-05T03:37:18.556Z,0
2023-02-05T03:38:20.040Z,0
2023-02-05T03:39:19.997Z,0
2023-02-05T03:40:21.494Z,0
2023-02-05T03:41:21.422Z,0
2023-02-05T03:42:21.662Z,0
2023-02-05T03:43:22.750Z,0
2023-02-05T03:44:23.001Z,0
2023-02-05T03:45:23.520Z,0
2023-02-05T03:46:23.500Z,0
2023-02-05T03:47:24.122Z,0
2023-02-05T03:48:25.618Z,0
2023-02-05T03:49:25.817Z,0
2023-02-05T03:50:26.030Z,0
2023-02-05T03:51:25.946Z,0
2023-02-05T03:52:26.866Z,0
2023-02-05T03:53:28.194Z,0
2023-02-05T03:54:29.122Z,0
2023-02-05T03:55:30.055Z,0
2023-02-05T03:56:30.345Z,0
2023-02-05T03:57:30.546Z,0
2023-02-05T03:58:31.119Z,0
2023-02-05T03:59:30.887Z,0
2023-02-05T04:00:31.504Z,0
2023-02-05T04:01:32.936Z,0
2023-02-05T04:02:33.227Z,0
2023-02-05T04:03:33.824Z,0
2023-02-05T04:04:33.819Z,0
2023-02-05T04:05:34.762Z,0
2023-02-05T04:06:35.144Z,0
2023-02-05T04:07:35.065Z,0
2023-02-05T04:08:35.982Z,0
2023-02-05T04:09:36.888Z,0
2023-02-05T04:10:38.099Z,0
2023-02-05T04:11:38.313Z,0
2023-02-05T04:12:38.238Z,0
2023-02-05T04:13:39.895Z,0
2023-02-05T04:14:40.155Z,0
2023-02-05T04:15:41.099Z,0
2023-02-05T04:16:41.602Z,0
2023-02-05T04:17:42.104Z,0
2023-02-05T04:18:42.030Z,0
2023-02-05T04:19:42.687Z,0
2023-02-05T04:20:43.345Z,0
2023-02-05T04:21:44.288Z,0
2023-02-05T04:22:45.002Z,0
2023-02-05T04:23:46.048Z,0
2023-02-05T04:24:45.700Z,0
2023-02-05T04:25:47.335Z,0
2023-02-05T04:26:47.282Z,0
2023-02-05T04:27:47.216Z,0
2023-02-05T04:28:48.516Z,0
2023-02-05T04:29:48.797Z,0
2023-02-05T04:30:48.980Z,0
2023-02-05T04:31:49.241Z,0
2023-02-05T04:32:49.766Z,0
2023-02-05T04:33:50.379Z,0
2023-02-05T04:34:50.575Z,0
2023-02-05T04:35:52.242Z,0
2023-02-05T04:36:51.878Z,0
2023-02-05T04:37:52.835Z,0
2023-02-05T04:38:53.459Z,0
2023-02-05T04:39:54.955Z,0
2023-02-05T04:40:55.153Z,0
2023-02-05T04:41:56.089Z,0
2023-02-05T04:42:56.011Z,0
2023-02-05T04:43:57.385Z,0
2023-02-05T04:44:57.952Z,0
2023-02-05T04:45:58.227Z,0
2023-02-05T04:46:58.519Z,0
2023-02-05T04:47:58.384Z,0
2023-02-05T04:48:59.297Z,0
2023-02-05T04:50:00.248Z,0
2023-02-05T04:51:00.465Z,0
2023-02-05T04:52:01.134Z,0
2023-02-05T04:53:02.370Z,0
2023-02-05T04:54:02.441Z,0
2023-02-05T04:55:02.655Z,0
2023-02-05T04:56:03.188Z,0
2023-02-05T04:57:02.529Z,0
2023-02-05T04:58:04.311Z,0
2023-02-05T04:59:04.597Z,0
2023-02-05T05:00:04.842Z,0
2023-02-05T05:01:05.079Z,0
2023-02-05T05:02:05.105Z,0
2023-02-05T05:03:06.814Z,0
2023-02-05T05:04:06.529Z,0
2023-02-05T05:05:07.719Z,0
2023-02-05T05:06:07.638Z,0
2023-02-05T05:07:08.286Z,0
2023-02-05T05:08:09.540Z,0
2023-02-05T05:09:09.194Z,0
2023-02-05T05:10:10.094Z,0
2023-02-05T05:11:10.764Z,0
2023-02-05T05:12:12.025Z,0
2023-02-05T05:13:12.240Z,0
2023-02-05T05:14:12.962Z,0
2023-02-05T05:15:12.944Z,0
2023-02-05T05:16:13.475Z,0
2023-02-05T05:17:13.120Z,0
2023-02-05T05:18:14.336Z,0
2023-02-05T05:19:15.602Z,0
2023-02-05T05:20:15.521Z,0
2023-02-05T05:21:15.887Z,0
2023-02-05T05:22:17.537Z,0
2023-02-05T05:23:19.022Z,0
2023-02-05T05:24:20.033Z,0
2023-02-05T05:25:20.530Z,0
2023-02-05T05:26:20.735Z,0
2023-02-05T05:27:20.927Z,0
2023-02-05T05:28:21.766Z,0
2023-02-05T05:29:22.036Z,0
2023-02-05T05:30:22.002Z,0
2023-02-05T05:31:23.336Z,0
2023-02-05T05:32:22.923Z,0
2023-02-05T05:33:24.160Z,0
2023-02-05T05:34:23.902Z,0
2023-02-05T05:35:24.814Z,0
2023-02-05T05:36:25.172Z,0
2023-02-05T05:37:26.086Z,0
2023-02-05T05:38:27.279Z,0
2023-02-05T05:39:27.608Z,0
2023-02-05T05:40:28.804Z,0
2023-02-05T05:41:29.748Z,0
2023-02-05T05:42:29.669Z,0
2023-02-05T05:43:30.303Z,0
2023-02-05T05:44:31.649Z,0
2023-02-05T05:45:31.909Z,0
2023-02-05T05:46:31.907Z,0
2023-02-05T05:47:32.540Z,0
2023-02-05T05:48:33.462Z,0
2023-02-05T05:49:33.815Z,0
2023-02-05T05:50:34.745Z,0
2023-02-05T05:51:35.939Z,0
2023-02-05T05:52:37.949Z,0
2023-02-05T05:53:36.847Z,0
2023-02-05T05:54:38.175Z,0
2023-02-05T05:55:38.601Z,0
2023-02-05T05:56:38.309Z,0
2023-02-05T05:57:38.628Z,0
2023-02-05T05:58:40.548Z,0
2023-02-05T05:59:40.879Z,0
2023-02-05T06:00:41.157Z,0
2023-02-05T06:01:41.072Z,0
2023-02-05T06:02:41.930Z,0
2023-02-05T06:03:43.158Z,0
2023-02-05T06:04:43.460Z,0
2023-02-05T06:05:44.549Z,0
2023-02-05T06:06:44.741Z,0
2023-02-05T06:07:45.662Z,0
2023-02-05T06:08:46.849Z,0
2023-02-05T06:09:47.046Z,0
2023-02-05T06:10:46.965Z,0
2023-02-05T06:11:48.175Z,0
2023-02-05T06:12:47.812Z,0
2023-02-05T06:13:48.889Z,0
2023-02-05T06:14:49.590Z,0
2023-02-05T06:15:50.747Z,0
2023-02-05T06:16:49.644Z,0
2023-02-05T06:17:50.596Z,0
2023-02-05T06:18:50.240Z,0
2023-02-05T06:19:51.476Z,0
2023-02-05T06:20:51.684Z,0
2023-02-05T06:21:51.879Z,0
2023-02-05T06:22:51.841Z,0
2023-02-05T06:23:53.048Z,0
2023-02-05T06:24:53.334Z,0
2023-02-05T06:25:53.237Z,0
2023-02-05T06:26:54.446Z,0
2023-02-05T06:27:55.155Z,0
2023-02-05T06:28:54.786Z,0
2023-02-05T06:29:56.082Z,0
2023-02-05T06:30:56.497Z,0
2023-02-05T06:31:56.944Z,0
2023-02-05T06:32:56.598Z,0
2023-02-05T06:33:58.095Z,0
2023-02-05T06:34:58.429Z,0
2023-02-05T06:35:58.920Z,0
2023-02-05T06:36:58.880Z,0
2023-02-05T06:38:04.481Z,0
2023-02-05T06:38:59.706Z,0
2023-02-05T06:39:59.975Z,0
2023-02-05T06:41:00.900Z,0
2023-02-05T06:42:01.248Z,0
2023-02-05T06:43:02.195Z,0
2023-02-05T06:44:02.940Z,0
2023-02-05T06:45:03.753Z,0
2023-02-05T06:46:04.476Z,0
2023-02-05T06:47:05.690Z,0
2023-02-05T06:48:05.917Z,0
2023-02-05T06:49:06.402Z,0
2023-02-05T06:50:06.066Z,5.63
2023-02-05T06:51:07.005Z,5.63
2023-02-05T06:52:07.946Z,5.63
2023-02-05T06:53:10.505Z,5.63
2023-02-05T06:54:09.718Z,5.63
2023-02-05T06:55:09.748Z,5.63
2023-02-05T06:56:10.243Z,5.63
2023-02-05T06:57:10.164Z,5.63
2023-02-05T06:58:10.811Z,5.63
2023-02-05T06:59:12.032Z,5.63
2023-02-05T07:00:13.420Z,5.63
2023-02-05T07:01:14.014Z,5.63
2023-02-05T07:02:14.121Z,5.63
2023-02-05T07:03:14.197Z,5.63
2023-02-05T07:04:15.120Z,5.63
2023-02-05T07:05:16.405Z,5.63
2023-02-05T07:06:16.613Z,11.25
2023-02-05T07:07:16.578Z,11.25
2023-02-05T07:08:17.689Z,11.25
2023-02-05T07:09:18.596Z,11.25
2023-02-05T07:10:19.836Z,11.25
2023-02-05T07:11:19.502Z,11.25
2023-02-05T07:12:20.129Z,11.25
2023-02-05T07:13:22.950Z,11.25
2023-02-05T07:14:22.151Z,11.25
2023-02-05T07:15:22.840Z,11.25
2023-02-05T07:16:23.036Z,11.25
2023-02-05T07:17:22.711Z,16.88
2023-02-05T07:18:24.199Z,16.88
2023-02-05T07:19:24.550Z,16.88
2023-02-05T07:20:24.461Z,16.88
2023-02-05T07:21:25.424Z,16.88
2023-02-05T07:22:25.374Z,16.88
2023-02-05T07:23:26.592Z,22.5
2023-02-05T07:24:28.010Z,22.5
2023-02-05T07:25:28.626Z,22.5
2023-02-05T07:26:28.624Z,22.5
2023-02-05T07:27:29.269Z,22.5
2023-02-05T07:28:30.336Z,22.5
2023-02-05T07:29:31.593Z,22.5
2023-02-05T07:30:37.284Z,22.5
2023-02-05T07:31:33.063Z,22.5
2023-02-05T07:32:33.328Z,22.5
2023-02-05T07:33:33.248Z,28.13
2023-02-05T07:34:34.454Z,28.13
2023-02-05T07:35:35.651Z,28.13
2023-02-05T07:36:36.033Z,33.75
2023-02-05T07:37:38.219Z,33.75
2023-02-05T07:38:36.838Z,33.75
2023-02-05T07:39:38.046Z,33.75
2023-02-05T07:40:38.310Z,33.75
2023-02-05T07:41:39.250Z,33.75
2023-02-05T07:42:42.091Z,33.75
2023-02-05T07:43:40.289Z,33.75
2023-02-05T07:44:41.509Z,33.75
2023-02-05T07:45:42.440Z,33.75
2023-02-05T07:46:42.706Z,45
2023-02-05T07:47:43.244Z,45
2023-02-05T07:48:43.194Z,50.63
2023-02-05T07:49:43.103Z,61.88
2023-02-05T07:50:44.060Z,56.25
2023-02-05T07:51:43.707Z,61.88
2023-02-05T07:52:45.190Z,73.13
2023-02-05T07:53:45.387Z,78.75
2023-02-05T07:54:45.578Z,112.5
2023-02-05T07:55:46.620Z,163.13
2023-02-05T07:56:46.823Z,90
2023-02-05T07:57:47.143Z,90
2023-02-05T07:58:47.634Z,101.25
2023-02-05T07:59:48.124Z,106.88
2023-02-05T08:00:48.151Z,489.38
2023-02-05T08:01:48.450Z,118.13
2023-02-05T08:02:48.083Z,270
2023-02-05T08:03:49.052Z,236.25
2023-02-05T08:04:50.304Z,90
2023-02-05T08:05:50.525Z,84.38
2023-02-05T08:06:50.459Z,90
2023-02-05T08:07:50.090Z,84.38
2023-02-05T08:08:51.588Z,90
2023-02-05T08:09:51.211Z,163.13
2023-02-05T08:10:52.712Z,106.88
2023-02-05T08:11:53.201Z,135
2023-02-05T08:12:53.424Z,135
2023-02-05T08:13:53.360Z,146.25
2023-02-05T08:14:54.028Z,135
2023-02-05T08:15:55.783Z,106.88
2023-02-05T08:16:56.374Z,106.88
2023-02-05T08:17:56.585Z,669.38
2023-02-05T08:18:56.511Z,208.13
2023-02-05T08:19:58.003Z,129.38
2023-02-05T08:20:58.515Z,275.63
2023-02-05T08:21:58.453Z,866.25
2023-02-05T08:22:59.677Z,573.75
2023-02-05T08:23:59.598Z,523.13
2023-02-05T08:25:00.798Z,264.38
2023-02-05T08:26:01.291Z,191.25
2023-02-05T08:27:02.513Z,208.13
2023-02-05T08:28:03.074Z,421.88
2023-02-05T08:29:02.991Z,511.88
2023-02-05T08:30:03.947Z,866.25
2023-02-05T08:31:05.294Z,618.75
2023-02-05T08:32:05.801Z,495
2023-02-05T08:33:06.306Z,146.25
2023-02-05T08:34:06.538Z,174.38
2023-02-05T08:35:06.177Z,168.75
2023-02-05T08:36:07.866Z,157.5
2023-02-05T08:37:08.797Z,151.88
2023-02-05T08:38:08.734Z,174.38
2023-02-05T08:39:10.235Z,315
2023-02-05T08:40:10.174Z,337.5
2023-02-05T08:41:10.388Z,241.88
2023-02-05T08:42:13.550Z,225
2023-02-05T08:43:11.520Z,213.75
2023-02-05T08:44:12.089Z,208.13
2023-02-05T08:45:11.767Z,225
2023-02-05T08:46:13.483Z,270
2023-02-05T08:47:13.818Z,275.63
2023-02-05T08:48:13.791Z,286.88
2023-02-05T08:49:15.019Z,286.88
2023-02-05T08:50:14.662Z,298.13
2023-02-05T08:51:15.328Z,298.13
2023-02-05T08:52:15.964Z,264.38
2023-02-05T08:53:17.456Z,258.75
2023-02-05T08:54:17.705Z,241.88
2023-02-05T08:55:17.627Z,202.5
2023-02-05T08:56:20.240Z,196.88
2023-02-05T08:57:19.529Z,270
2023-02-05T08:58:20.203Z,348.75
2023-02-05T08:59:20.865Z,371.25
2023-02-05T09:00:21.537Z,331.88
2023-02-05T09:01:23.291Z,208.13
2023-02-05T09:02:33.514Z,157.5
2023-02-05T09:03:24.039Z,151.88
2023-02-05T09:04:24.537Z,151.88
2023-02-05T09:05:28.435Z,151.88
2023-02-05T09:06:25.153Z,151.88
2023-02-05T09:07:25.570Z,151.88
2023-02-05T09:08:26.077Z,151.88
2023-02-05T09:09:26.272Z,151.88
2023-02-05T09:10:26.730Z,157.5
2023-02-05T09:11:27.932Z,157.5
2023-02-05T09:12:28.878Z,168.75
2023-02-05T09:13:29.809Z,208.13
2023-02-05T09:14:29.733Z,196.88
2023-02-05T09:15:30.741Z,202.5
2023-02-05T09:16:31.746Z,185.63
2023-02-05T09:17:32.092Z,163.13
2023-02-05T09:18:32.642Z,157.5
2023-02-05T09:19:32.867Z,163.13
2023-02-05T09:20:33.084Z,168.75
2023-02-05T09:21:34.011Z,196.88
2023-02-05T09:22:33.934Z,191.25
2023-02-05T09:23:34.880Z,191.25
2023-02-05T09:24:35.821Z,219.38
2023-02-05T09:25:36.221Z,270
2023-02-05T09:26:36.625Z,303.75
2023-02-05T09:27:36.560Z,275.63
2023-02-05T09:28:37.493Z,275.63
2023-02-05T09:29:37.842Z,309.38
2023-02-05T09:30:38.954Z,320.63
2023-02-05T09:31:40.378Z,264.38
2023-02-05T09:32:39.662Z,146.25
2023-02-05T09:33:40.652Z,337.5
2023-02-05T09:34:40.595Z,388.13
2023-02-05T09:35:42.244Z,281.25
2023-02-05T09:36:42.279Z,258.75
2023-02-05T09:37:43.214Z,405
2023-02-05T09:38:43.708Z,444.38
2023-02-05T09:40:33.983Z,506.25
2023-02-05T09:40:51.198Z,506.25
2023-02-05T09:41:51.126Z,472.5
2023-02-05T09:42:52.931Z,489.38
2023-02-05T09:43:53.441Z,444.38
2023-02-05T09:44:52.804Z,326.25
2023-02-05T09:45:55.560Z,382.5
2023-02-05T09:46:55.003Z,427.5
2023-02-05T09:47:54.965Z,444.38
2023-02-05T09:48:55.534Z,506.25
2023-02-05T09:49:55.170Z,433.13
2023-02-05T09:50:57.911Z,348.75
2023-02-05T09:51:56.906Z,326.25
2023-02-05T09:52:57.854Z,438.75
2023-02-05T09:53:58.354Z,534.38
2023-02-05T09:54:58.312Z,590.63
2023-02-05T09:55:58.560Z,461.25
2023-02-05T09:56:59.895Z,562.5
2023-02-05T09:58:00.135Z,455.63
2023-02-05T09:59:00.355Z,416.25
2023-02-05T10:00:00.591Z,461.25
2023-02-05T10:01:01.218Z,416.25
2023-02-05T10:02:01.614Z,461.25
2023-02-05T10:03:01.565Z,511.88
2023-02-05T10:04:02.560Z,528.75
2023-02-05T10:05:03.186Z,613.13
2023-02-05T10:06:03.515Z,703.13
2023-02-05T10:07:03.522Z,815.63
2023-02-05T10:08:04.037Z,866.25
2023-02-05T10:09:04.243Z,658.13
2023-02-05T10:10:04.460Z,787.5
2023-02-05T10:11:04.832Z,568.13
2023-02-05T10:12:06.061Z,472.5
2023-02-05T10:13:05.999Z,658.13
2023-02-05T10:14:07.218Z,798.75
2023-02-05T10:15:07.132Z,866.25
2023-02-05T10:16:07.784Z,855
2023-02-05T10:17:09.201Z,320.63
2023-02-05T10:18:10.163Z,669.38
2023-02-05T10:19:10.914Z,973.13
2023-02-05T10:20:12.847Z,984.38
2023-02-05T10:21:12.068Z,978.75
2023-02-05T10:22:12.999Z,748.13
2023-02-05T10:23:13.501Z,883.13
2023-02-05T10:24:13.708Z,691.88
2023-02-05T10:25:13.957Z,720
2023-02-05T10:26:14.174Z,871.88
2023-02-05T10:27:14.342Z,984.38
2023-02-05T10:28:15.888Z,776.25
2023-02-05T10:29:15.912Z,753.75
2023-02-05T10:30:16.120Z,461.25
2023-02-05T10:31:17.556Z,405
2023-02-05T10:32:17.946Z,416.25
2023-02-05T10:33:18.205Z,376.88
2023-02-05T10:34:18.639Z,376.88
2023-02-05T10:35:20.127Z,253.13
2023-02-05T10:36:20.064Z,191.25
2023-02-05T10:37:20.875Z,168.75
2023-02-05T10:38:22.972Z,151.88
2023-02-05T10:39:23.176Z,140.63
2023-02-05T10:40:23.383Z,135
2023-02-05T10:41:23.685Z,129.38
2023-02-05T10:42:24.335Z,129.38
2023-02-05T10:43:25.275Z,129.38
2023-02-05T10:44:24.917Z,135
2023-02-05T10:45:29.642Z,135
2023-02-05T10:46:27.066Z,129.38
2023-02-05T10:47:27.126Z,129.38
2023-02-05T10:48:27.813Z,123.75
2023-02-05T10:49:28.796Z,118.13
2023-02-05T10:50:29.998Z,118.13
2023-02-05T10:51:30.400Z,112.5
2023-02-05T10:52:31.622Z,112.5
2023-02-05T10:53:31.269Z,112.5
2023-02-05T10:54:32.221Z,112.5
2023-02-05T10:55:32.868Z,106.88
2023-02-05T10:56:32.690Z,106.88
2023-02-05T10:57:34.048Z,106.88
2023-02-05T10:58:34.282Z,101.25
2023-02-05T10:59:34.476Z,101.25
2023-02-05T11:00:34.615Z,95.63
2023-02-05T11:01:35.571Z,95.63
2023-02-05T11:02:36.193Z,95.63
2023-02-05T11:03:36.465Z,90
2023-02-05T11:04:38.290Z,90
2023-02-05T11:05:36.782Z,95.63
2023-02-05T11:06:37.982Z,95.63
2023-02-05T11:07:38.418Z,101.25
2023-02-05T11:08:39.079Z,101.25
2023-02-05T11:09:40.295Z,101.25
2023-02-05T11:10:41.222Z,106.88
2023-02-05T11:11:43.789Z,118.13
2023-02-05T11:12:41.696Z,118.13
2023-02-05T11:13:42.159Z,129.38
2023-02-05T11:14:43.389Z,151.88
2023-02-05T11:15:43.928Z,151.88
2023-02-05T11:16:44.147Z,151.88
2023-02-05T11:17:44.930Z,157.5
2023-02-05T11:18:44.880Z,157.5
2023-02-05T11:19:46.458Z,168.75
2023-02-05T11:20:47.674Z,157.5
2023-02-05T11:21:47.173Z,157.5
2023-02-05T11:22:46.850Z,146.25
2023-02-05T11:23:47.759Z,157.5
2023-02-05T11:24:48.694Z,135
2023-02-05T11:25:49.003Z,129.38
2023-02-05T11:26:49.240Z,129.38
2023-02-05T11:27:50.486Z,123.75
2023-02-05T11:28:51.063Z,123.75
2023-02-05T11:29:51.019Z,118.13
2023-02-05T11:31:21.567Z,118.13
2023-02-05T11:31:53.337Z,112.5
2023-02-05T11:32:53.741Z,106.88
2023-02-05T11:33:53.780Z,101.25
2023-02-05T11:34:54.788Z,95.63
2023-02-05T11:35:55.982Z,95.63
2023-02-05T11:36:57.286Z,90
2023-02-05T11:37:56.721Z,84.38
2023-02-05T11:38:57.933Z,84.38
2023-02-05T11:39:57.853Z,78.75
2023-02-05T11:40:59.063Z,78.75
2023-02-05T11:41:59.688Z,78.75
2023-02-05T11:42:59.898Z,73.13
2023-02-05T11:44:00.578Z,73.13
2023-02-05T11:45:01.516Z,67.5
2023-02-05T11:46:02.456Z,67.5
2023-02-05T11:47:02.673Z,61.88
2023-02-05T11:48:04.013Z,61.88
2023-02-05T11:49:03.972Z,61.88
2023-02-05T11:50:03.991Z,61.88
2023-02-05T11:51:04.614Z,61.88
2023-02-05T11:52:05.551Z,61.88
2023-02-05T11:53:06.483Z,61.88
2023-02-05T11:54:06.681Z,61.88
2023-02-05T11:55:06.900Z,67.5
2023-02-05T11:56:07.098Z,67.5
2023-02-05T11:57:06.750Z,67.5
2023-02-05T11:58:08.074Z,67.5
2023-02-05T11:59:08.300Z,67.5
2023-02-05T12:00:09.266Z,61.88
2023-02-05T12:01:08.897Z,61.88
2023-02-05T12:02:10.004Z,61.88
2023-02-05T12:03:10.746Z,61.88
2023-02-05T12:04:11.014Z,61.88
2023-02-05T12:05:11.578Z,61.88
2023-02-05T12:06:12.062Z,61.88
2023-02-05T12:07:12.187Z,61.88
2023-02-05T12:08:14.751Z,61.88
2023-02-05T12:09:13.948Z,61.88
2023-02-05T12:10:14.446Z,61.88
2023-02-05T12:11:14.639Z,61.88
2023-02-05T12:12:15.557Z,61.88
2023-02-05T12:13:16.492Z,61.88
2023-02-05T12:14:16.400Z,61.88
2023-02-05T12:15:17.893Z,56.25
2023-02-05T12:16:18.634Z,56.25
2023-02-05T12:17:18.283Z,56.25
2023-02-05T12:18:19.691Z,56.25
2023-02-05T12:19:19.653Z,56.25
2023-02-05T12:20:19.616Z,56.25
2023-02-05T12:21:20.241Z,50.63
2023-02-05T12:22:21.160Z,50.63
2023-02-05T12:23:21.087Z,50.63
2023-02-05T12:24:22.585Z,50.63
2023-02-05T12:25:22.778Z,50.63
2023-02-05T12:26:22.675Z,56.25
2023-02-05T12:27:23.317Z,56.25
2023-02-05T12:28:24.972Z,50.63
2023-02-05T12:29:24.626Z,50.63
2023-02-05T12:30:25.815Z,50.63
2023-02-05T12:31:25.923Z,50.63
2023-02-05T12:32:26.133Z,50.63
2023-02-05T12:33:28.482Z,50.63
2023-02-05T12:34:27.809Z,50.63
2023-02-05T12:35:27.783Z,50.63
2023-02-05T12:36:29.262Z,50.63
2023-02-05T12:37:28.614Z,50.63
2023-02-05T12:38:43.449Z,45
2023-02-05T12:39:30.372Z,45
2023-02-05T12:40:31.896Z,39.38
2023-02-05T12:41:32.112Z,39.38
2023-02-05T12:42:33.328Z,39.38
2023-02-05T12:43:33.279Z,45
2023-02-05T12:44:37.338Z,45
2023-02-05T12:45:35.810Z,45
2023-02-05T12:46:36.220Z,39.38
2023-02-05T12:47:37.142Z,39.38
2023-02-05T12:48:38.220Z,39.38
2023-02-05T12:49:41.028Z,39.38
2023-02-05T12:50:39.157Z,39.38
2023-02-05T12:51:39.369Z,39.38
2023-02-05T12:52:39.593Z,39.38
2023-02-05T12:53:39.792Z,39.38
2023-02-05T12:54:41.010Z,45
2023-02-05T12:55:41.691Z,45
2023-02-05T12:56:42.196Z,45
2023-02-05T12:57:43.529Z,50.63
2023-02-05T12:58:42.319Z,50.63
2023-02-05T12:59:43.520Z,50.63
2023-02-05T13:00:45.289Z,50.63
2023-02-05T13:01:44.936Z,56.25
2023-02-05T13:02:45.622Z,56.25
2023-02-05T13:03:46.943Z,56.25
2023-02-05T13:04:47.327Z,56.25
2023-02-05T13:05:48.080Z,56.25
2023-02-05T13:06:48.570Z,56.25
2023-02-05T13:07:48.484Z,50.63
2023-02-05T13:08:49.815Z,50.63
2023-02-05T13:09:50.006Z,45
2023-02-05T13:10:49.617Z,45
2023-02-05T13:11:49.956Z,45
2023-02-05T13:12:51.361Z,39.38
2023-02-05T13:13:51.851Z,39.38
2023-02-05T13:14:52.335Z,39.38
2023-02-05T13:15:53.258Z,39.38
2023-02-05T13:16:53.452Z,39.38
2023-02-05T13:17:53.662Z,39.38
2023-02-05T13:18:54.419Z,39.38
2023-02-05T13:19:54.951Z,39.38
2023-02-05T13:20:54.927Z,39.38
2023-02-05T13:21:55.836Z,39.38
2023-02-05T13:22:56.742Z,39.38
2023-02-05T13:23:57.092Z,39.38
2023-02-05T13:24:58.285Z,39.38
2023-02-05T13:25:58.875Z,39.38
2023-02-05T13:26:58.765Z,39.38
2023-02-05T13:28:00.130Z,39.38
2023-02-05T13:29:00.253Z,39.38
2023-02-05T13:30:00.741Z,39.38
2023-02-05T13:31:01.686Z,39.38
2023-02-05T13:32:14.003Z,39.38
2023-02-05T13:33:01.880Z,39.38
2023-02-05T13:34:03.418Z,39.38
2023-02-05T13:35:03.664Z,39.38
2023-02-05T13:36:06.465Z,39.38
2023-02-05T13:37:04.401Z,39.38
2023-02-05T13:38:05.885Z,39.38
2023-02-05T13:39:05.901Z,39.38
2023-02-05T13:40:06.562Z,39.38
2023-02-05T13:41:07.556Z,39.38
2023-02-05T13:42:07.203Z,39.38
2023-02-05T13:43:08.419Z,33.75
2023-02-05T13:44:08.324Z,33.75
2023-02-05T13:45:09.813Z,33.75
2023-02-05T13:46:09.998Z,33.75
2023-02-05T13:47:09.936Z,33.75
2023-02-05T13:48:12.576Z,33.75
2023-02-05T13:49:11.397Z,28.13
2023-02-05T13:50:12.348Z,28.13
2023-02-05T13:51:13.628Z,28.13
2023-02-05T13:52:13.548Z,28.13